Time;durP1;ratioP1;P1;durP2;ratioP2;P2;SDS_P1;SDS_P2;PMS_P1;PMS_P2;Temp;Humidity;BMP_temperature;BMP_pressure;BME280_temperature;BME280_humidity;BME280_pressure;Samples;Min_cycle;Max_cycle;Signal;HPM_P1;HPM_P2
2023/04/21 00:00:00;;;;;;;9.75;5.35;;;8.70;56.50;;;;;;5035339;28;20048;-76
2023/04/21 00:02:26;;;;;;;11.25;5.65;;;8.70;59.20;;;;;;5018853;28;20029;-76
2023/04/21 00:04:52;;;;;;;7.55;5.13;;;8.70;45.80;;;;;;5043331;28;20056;-80
2023/04/21 00:07:19;;;;;;;13.20;5.57;;;8.70;59.10;;;;;;5035819;28;20072;-79
2023/04/21 00:09:45;;;;;;;13.20;5.53;;;8.70;49.90;;;;;;5052458;28;20055;-80
2023/04/21 00:12:10;;;;;;;8.45;5.50;;;8.70;41.90;;;;;;5035841;28;20044;-80
2023/04/21 00:14:38;;;;;;;12.43;5.22;;;8.70;33.80;;;;;;5036132;28;20036;-79
2023/04/21 00:17:04;;;;;;;9.30;5.32;;;8.70;59.20;;;;;;5052565;28;20044;-79
2023/04/21 00:19:30;;;;;;;11.65;5.40;;;8.70;37.70;;;;;;5036281;28;20036;-79
2023/04/21 00:21:58;;;;;;;12.25;5.70;;;8.70;48.40;;;;;;5052802;28;20087;-79
2023/04/21 00:24:24;;;;;;;8.68;4.93;;;8.60;36.00;;;;;;5052727;28;20436;-80
2023/04/21 00:26:50;;;;;;;12.55;6.10;;;8.60;28.80;;;;;;5052543;28;20415;-80
2023/04/21 00:29:16;;;;;;;11.18;4.93;;;8.60;26.30;;;;;;5036194;28;20049;-79
2023/04/21 00:31:41;;;;;;;11.30;5.00;;;8.60;25.80;;;;;;5052130;28;20037;-80
2023/04/21 00:34:07;;;;;;;12.27;5.95;;;8.60;33.20;;;;;;5052519;28;20496;-79
2023/04/21 00:36:33;;;;;;;10.50;5.30;;;8.50;44.70;;;;;;5052224;28;20033;-80
2023/04/21 00:38:58;;;;;;;16.38;5.20;;;8.50;30.10;;;;;;5052566;28;20397;-80
2023/04/21 00:41:26;;;;;;;10.43;5.15;;;8.40;31.50;;;;;;5052268;28;20080;-79
2023/04/21 00:44:08;;;;;;;7.90;4.28;;;8.40;31.60;;;;;;5053308;28;20041;-79
2023/04/21 00:46:35;;;;;;;9.07;4.75;;;9.20;26.20;;;;;;5053256;28;20033;-79
2023/04/21 00:49:04;;;;;;;10.77;5.20;;;8.40;48.20;;;;;;5052938;28;20041;-79
2023/04/21 00:51:31;;;;;;;8.05;4.78;;;8.40;33.00;;;;;;5053089;28;20037;-80
2023/04/21 00:53:59;;;;;;;8.27;5.10;;;8.30;53.30;;;;;;5035826;28;20481;-80
2023/04/21 00:56:26;;;;;;;9.50;5.05;;;9.90;30.10;;;;;;5035858;28;20032;-79
2023/04/21 00:58:53;;;;;;;9.52;5.50;;;8.30;29.40;;;;;;5052490;28;20492;-80
2023/04/21 01:01:18;;;;;;;9.38;4.35;;;8.30;30.00;;;;;;5035869;28;20041;-79
2023/04/21 01:03:46;;;;;;;9.45;5.10;;;8.30;30.40;;;;;;5035859;28;20095;-79
2023/04/21 01:06:12;;;;;;;7.30;4.38;;;8.30;26.10;;;;;;5035587;28;20051;-80
2023/04/21 01:08:37;;;;;;;10.18;5.05;;;8.20;22.50;;;;;;5035466;28;20045;-80
2023/04/21 01:11:10;;;;;;;9.52;5.32;;;8.20;31.20;;;;;;5035642;28;20084;-79
2023/04/21 01:13:37;;;;;;;21.10;4.97;;;8.20;27.20;;;;;;5018886;28;20037;-80
2023/04/21 01:16:02;;;;;;;15.07;5.47;;;9.40;24.30;;;;;;5019113;28;20048;-80
2023/04/21 01:18:29;;;;;;;8.85;5.30;;;8.20;47.40;;;;;;5035511;28;20041;-79
2023/04/21 01:20:57;;;;;;;11.75;5.45;;;8.20;33.60;;;;;;5035640;28;20065;-80
2023/04/21 01:23:23;;;;;;;10.68;5.20;;;8.20;48.40;;;;;;5035271;28;20083;-79
2023/04/21 01:25:50;;;;;;;10.85;5.75;;;8.20;38.20;;;;;;5034920;28;20072;-79
2023/04/21 01:28:24;;;;;;;8.25;4.93;;;8.20;68.10;;;;;;5035201;28;20033;-79
2023/04/21 01:30:50;;;;;;;8.68;5.40;;;8.20;51.70;;;;;;5035296;28;20492;-79
2023/04/21 01:33:16;;;;;;;13.57;4.47;;;8.00;45.00;;;;;;5035213;28;20090;-80
2023/04/21 01:35:42;;;;;;;10.80;5.03;;;8.10;29.70;;;;;;5019058;28;20029;-80
2023/04/21 01:38:08;;;;;;;9.40;4.93;;;8.10;24.30;;;;;;5035693;28;20037;-80
2023/04/21 01:40:34;;;;;;;9.88;4.55;;;8.20;22.00;;;;;;5035700;28;20033;-79
2023/04/21 01:42:59;;;;;;;9.07;4.82;;;8.10;22.90;;;;;;5021199;28;20052;-80
2023/04/21 01:45:25;;;;;;;6.85;4.07;;;8.20;22.90;;;;;;5038926;28;20079;-80
2023/04/21 01:47:51;;;;;;;11.70;5.50;;;8.10;21.10;;;;;;5038966;28;20033;-80
2023/04/21 01:50:17;;;;;;;7.72;5.18;;;8.10;28.80;;;;;;5038720;28;20094;-80
2023/04/21 01:52:42;;;;;;;7.55;4.50;;;8.10;36.70;;;;;;5022298;28;20163;-79
2023/04/21 01:55:08;;;;;;;14.30;5.40;;;8.10;26.90;;;;;;5038505;28;20513;-79
2023/04/21 01:57:35;;;;;;;8.80;5.10;;;8.00;41.10;;;;;;5038365;28;20079;-79
2023/04/21 02:00:01;;;;;;;12.77;4.93;;;8.00;47.00;;;;;;5038331;28;20158;-79
2023/04/21 02:02:26;;;;;;;8.25;5.15;;;8.00;33.60;;;;;;5038640;28;20056;-79
2023/04/21 02:04:52;;;;;;;12.25;6.13;;;8.00;25.80;;;;;;5046149;28;20131;-76
2023/04/21 02:07:17;;;;;;;7.03;4.88;;;8.00;65.20;;;;;;5054463;28;20412;-77
2023/04/21 02:09:43;;;;;;;11.10;4.85;;;8.00;59.60;;;;;;5054103;28;20049;-77
2023/04/21 02:12:09;;;;;;;8.02;4.45;;;7.90;52.00;;;;;;5054009;28;20044;-77
2023/04/21 02:14:36;;;;;;;9.55;5.30;;;8.00;53.90;;;;;;5053970;28;20036;-76
2023/04/21 02:17:02;;;;;;;8.57;4.75;;;7.90;60.30;;;;;;5037385;28;20048;-77
2023/04/21 02:19:28;;;;;;;7.47;4.20;;;7.90;39.30;;;;;;5053943;28;20115;-76
2023/04/21 02:21:54;;;;;;;7.68;5.10;;;7.90;56.80;;;;;;5053892;28;20045;-76
2023/04/21 02:24:20;;;;;;;10.25;4.70;;;7.90;61.90;;;;;;5037185;28;20041;-76
2023/04/21 02:26:46;;;;;;;9.13;5.13;;;7.90;56.00;;;;;;5054009;28;20406;-76
2023/04/21 02:29:11;;;;;;;7.65;4.65;;;7.80;45.80;;;;;;5053917;28;20037;-76
2023/04/21 02:31:37;;;;;;;7.93;4.50;;;7.80;63.10;;;;;;5053841;28;20133;-76
2023/04/21 02:34:03;;;;;;;9.63;5.55;;;7.80;50.20;;;;;;5053486;28;20047;-76
2023/04/21 02:36:28;;;;;;;14.25;5.22;;;8.00;71.50;;;;;;5053769;28;20091;-76
2023/04/21 02:38:54;;;;;;;10.55;5.15;;;7.80;67.00;;;;;;5053765;28;20067;-77
2023/04/21 02:41:19;;;;;;;9.32;5.20;;;8.20;70.80;;;;;;5053530;28;20139;-76
2023/04/21 02:43:45;;;;;;;6.50;4.32;;;8.20;64.70;;;;;;5053762;28;20087;-76
2023/04/21 02:46:11;;;;;;;9.02;4.97;;;7.80;57.50;;;;;;5036893;28;20041;-76
2023/04/21 02:48:36;;;;;;;11.88;4.90;;;7.80;54.90;;;;;;5053333;28;20087;-76
2023/04/21 02:51:03;;;;;;;7.40;4.80;;;7.70;56.50;;;;;;5053359;28;20037;-76
2023/04/21 02:53:29;;;;;;;9.10;5.15;;;7.70;60.10;;;;;;5052335;28;20049;-76
2023/04/21 02:55:55;;;;;;;14.55;4.68;;;7.70;52.40;;;;;;5053253;28;20058;-76
2023/04/21 02:58:21;;;;;;;10.73;5.53;;;7.70;62.00;;;;;;5053223;28;20045;-77
2023/04/21 03:00:46;;;;;;;12.27;5.30;;;7.60;64.00;;;;;;5053073;28;20123;-76
2023/04/21 03:03:14;;;;;;;7.30;4.65;;;7.60;68.50;;;;;;5036495;28;20508;-76
2023/04/21 03:05:40;;;;;;;9.57;5.63;;;7.60;68.50;;;;;;5052894;28;20106;-76
2023/04/21 03:08:06;;;;;;;9.07;5.07;;;7.60;68.20;;;;;;5036448;28;20037;-76
2023/04/21 03:10:31;;;;;;;9.82;5.50;;;7.60;69.50;;;;;;5052955;28;20033;-76
2023/04/21 03:12:57;;;;;;;11.95;5.53;;;7.60;68.50;;;;;;5052893;28;20086;-76
2023/04/21 03:15:22;;;;;;;10.25;5.68;;;7.60;64.80;;;;;;5036144;28;20041;-77
2023/04/21 03:17:48;;;;;;;9.00;5.38;;;7.60;65.60;;;;;;5053096;28;20076;-76
2023/04/21 03:20:14;;;;;;;10.43;5.00;;;7.60;66.30;;;;;;5052793;28;20036;-76
2023/04/21 03:22:40;;;;;;;9.43;5.07;;;7.50;72.40;;;;;;5052663;28;20048;-76
2023/04/21 03:25:06;;;;;;;10.32;5.43;;;7.00;73.70;;;;;;5052771;28;20045;-77
2023/04/21 03:27:32;;;;;;;8.95;5.53;;;7.50;67.10;;;;;;5052616;28;20488;-77
2023/04/21 03:29:58;;;;;;;15.80;5.82;;;7.50;64.40;;;;;;5052879;28;20045;-76
2023/04/21 03:32:24;;;;;;;9.77;5.03;;;8.00;86.10;;;;;;5052457;28;20037;-76
2023/04/21 03:34:50;;;;;;;13.00;5.32;;;7.30;78.50;;;;;;5052313;28;20492;-76
2023/04/21 03:37:15;;;;;;;9.30;5.32;;;8.00;80.70;;;;;;5035800;28;20041;-75
2023/04/21 03:39:41;;;;;;;10.07;5.00;;;7.50;78.60;;;;;;5035825;28;20488;-76
2023/04/21 03:42:06;;;;;;;9.02;4.88;;;8.40;79.20;;;;;;5052300;28;20037;-76
2023/04/21 03:44:32;;;;;;;8.00;5.13;;;7.40;78.00;;;;;;5052571;28;20074;-76
2023/04/21 03:46:58;;;;;;;13.68;5.50;;;7.40;83.70;;;;;;5035961;28;20086;-76
2023/04/21 03:49:24;;;;;;;10.27;5.18;;;7.40;86.00;;;;;;5052127;28;20079;-76
2023/04/21 03:51:49;;;;;;;8.77;5.13;;;7.40;75.20;;;;;;5052339;28;20455;-76
2023/04/21 03:54:15;;;;;;;11.63;5.22;;;7.40;76.60;;;;;;5052209;28;20051;-77
2023/04/21 03:56:40;;;;;;;12.07;5.57;;;7.30;82.30;;;;;;5052021;28;20041;-76
2023/04/21 03:59:06;;;;;;;7.00;4.97;;;7.30;79.20;;;;;;5052242;28;20036;-76
2023/04/21 04:01:35;;;;;;;11.23;5.60;;;7.30;79.30;;;;;;5035618;28;20036;-76
2023/04/21 04:04:01;;;;;;;9.10;5.60;;;7.30;81.10;;;;;;5051784;28;20060;-76
2023/04/21 04:06:27;;;;;;;11.10;5.15;;;7.40;85.80;;;;;;5052044;28;20033;-76
2023/04/21 04:08:53;;;;;;;10.77;4.95;;;7.40;82.10;;;;;;5035569;28;20125;-76
2023/04/21 04:11:18;;;;;;;10.18;4.82;;;7.70;79.00;;;;;;5051825;28;20412;-76
2023/04/21 04:13:44;;;;;;;13.07;5.25;;;7.40;78.80;;;;;;5051942;28;20531;-76
2023/04/21 04:16:09;;;;;;;9.32;5.35;;;7.40;77.80;;;;;;5051680;28;20033;-76
2023/04/21 04:18:35;;;;;;;11.13;5.32;;;7.40;80.50;;;;;;5051701;28;20480;-76
2023/04/21 04:21:07;;;;;;;10.95;5.38;;;9.30;80.20;;;;;;5051890;28;20485;-76
2023/04/21 04:23:33;;;;;;;9.32;5.03;;;7.40;78.20;;;;;;5051690;28;20041;-76
2023/04/21 04:26:00;;;;;;;10.52;5.53;;;7.40;76.10;;;;;;5051881;28;20041;-76
2023/04/21 04:28:26;;;;;;;10.50;5.00;;;7.40;75.60;;;;;;5051872;28;20041;-76
2023/04/21 04:30:52;;;;;;;10.32;5.53;;;7.40;89.70;;;;;;5035263;28;20095;-76
2023/04/21 04:33:17;;;;;;;9.07;5.25;;;7.40;85.60;;;;;;5051431;28;20047;-77
2023/04/21 04:35:43;;;;;;;8.95;5.20;;;7.50;87.10;;;;;;5035287;28;20079;-76
2023/04/21 04:38:09;;;;;;;13.40;5.78;;;7.50;79.70;;;;;;5051742;28;20032;-77
2023/04/21 04:40:34;;;;;;;13.65;5.43;;;7.50;88.10;;;;;;5051625;28;20045;-77
2023/04/21 04:43:01;;;;;;;10.25;4.80;;;7.50;87.10;;;;;;5051431;28;20064;-77
2023/04/21 04:45:28;;;;;;;5.90;4.32;;;8.20;89.70;;;;;;5051638;28;20041;-76
2023/04/21 04:47:54;;;;;;;11.77;5.28;;;7.60;81.00;;;;;;5051482;28;20123;-76
2023/04/21 04:50:20;;;;;;;8.07;4.78;;;7.60;78.40;;;;;;5051508;28;20037;-76
2023/04/21 04:52:46;;;;;;;9.43;5.35;;;7.60;78.50;;;;;;5051455;28;20048;-76
2023/04/21 04:55:13;;;;;;;8.00;4.70;;;7.60;75.20;;;;;;5051134;28;20041;-77
2023/04/21 04:57:38;;;;;;;7.10;4.65;;;7.70;68.10;;;;;;5051600;28;20076;-76
2023/04/21 05:00:07;;;;;;;11.60;5.35;;;7.70;69.80;;;;;;5051427;28;20138;-76
2023/04/21 05:02:35;;;;;;;11.50;5.25;;;7.70;78.40;;;;;;5052025;28;20049;-76
2023/04/21 05:05:01;;;;;;;8.52;5.00;;;7.80;68.80;;;;;;5051229;28;20144;-77
2023/04/21 05:07:27;;;;;;;15.57;5.03;;;7.80;74.00;;;;;;5034810;28;20041;-77
2023/04/21 05:09:53;;;;;;;9.52;5.32;;;7.80;69.70;;;;;;5051440;28;20112;-77
2023/04/21 05:12:19;;;;;;;11.10;5.22;;;7.90;73.20;;;;;;5035005;28;20037;-77
2023/04/21 05:14:44;;;;;;;12.07;4.28;;;7.90;68.70;;;;;;5051237;28;20099;-77
2023/04/21 05:17:10;;;;;;;8.07;5.18;;;8.00;67.80;;;;;;5052639;28;20056;-77
2023/04/21 05:19:38;;;;;;;12.07;4.82;;;8.00;64.50;;;;;;5038767;28;20043;-77
2023/04/21 05:22:05;;;;;;;5.53;3.75;;;8.10;54.90;;;;;;5055095;28;20040;-77
2023/04/21 05:24:32;;;;;;;12.43;4.57;;;8.10;53.60;;;;;;5055332;28;20052;-76
2023/04/21 05:26:57;;;;;;;11.70;5.60;;;8.20;61.50;;;;;;5055202;28;20052;-74
2023/04/21 05:29:23;;;;;;;9.13;6.00;;;8.30;67.10;;;;;;5054925;28;20037;-75
2023/04/21 05:31:49;;;;;;;11.80;5.05;;;8.30;60.70;;;;;;5038196;28;20484;-75
2023/04/21 05:34:14;;;;;;;8.63;4.32;;;8.30;57.70;;;;;;5054657;28;20170;-75
2023/04/21 05:36:41;;;;;;;9.77;4.82;;;8.40;50.90;;;;;;5055045;28;20392;-75
2023/04/21 05:39:06;;;;;;;8.50;5.25;;;8.50;55.10;;;;;;5038057;28;20037;-76
2023/04/21 05:41:32;;;;;;;9.27;4.90;;;8.60;50.50;;;;;;5055377;28;20037;-73
2023/04/21 05:43:58;;;;;;;10.05;4.68;;;8.60;43.90;;;;;;5054542;28;20048;-73
2023/04/21 05:46:23;;;;;;;6.55;4.35;;;8.70;34.40;;;;;;5054624;28;20132;-80
2023/04/21 05:48:49;;;;;;;8.38;4.28;;;8.70;32.80;;;;;;5038952;28;20135;-82
2023/04/21 05:51:14;;;;;;;8.00;4.50;;;8.80;24.40;;;;;;5054947;28;20114;-81
2023/04/21 05:53:41;;;;;;;9.35;5.05;;;8.90;22.20;;;;;;5054426;28;20077;-78
2023/04/21 05:56:11;;;;;;;13.13;4.63;;;8.90;16.50;;;;;;5054385;28;20037;-74
2023/04/21 05:58:37;;;;;;;8.38;4.25;;;;;;;;;;5054353;28;20037;-78
2023/04/21 06:01:05;;;;;;;11.98;4.53;;;;;;;;;;5054886;28;20564;-80
2023/04/21 06:03:31;;;;;;;9.25;3.92;;;9.20;5.60;;;;;;5055442;28;20053;-80
2023/04/21 06:05:58;;;;;;;10.10;4.20;;;8.90;1.00;;;;;;5055887;28;20087;-80
2023/04/21 06:08:23;;;;;;;7.35;4.35;;;9.30;1.00;;;;;;5055450;28;20044;-80
2023/04/21 06:10:49;;;;;;;6.95;3.90;;;9.20;1.00;;;;;;5055072;28;20041;-80
2023/04/21 06:13:15;;;;;;;13.35;4.43;;;;;;;;;;5055694;28;20385;-79
2023/04/21 06:15:41;;;;;;;7.47;4.20;;;;;;;;;;5054723;28;20044;-78
2023/04/21 06:18:08;;;;;;;9.60;4.25;;;;;;;;;;5038310;28;20045;-81
2023/04/21 06:20:33;;;;;;;7.75;4.93;;;10.00;1.00;;;;;;5054445;28;20036;-76
2023/04/21 06:22:59;;;;;;;8.95;4.40;;;10.40;1.00;;;;;;5037504;28;20106;-76
2023/04/21 06:25:25;;;;;;;8.10;4.35;;;10.00;1.00;;;;;;5053633;28;20049;-79
2023/04/21 06:27:51;;;;;;;6.22;3.90;;;;;;;;;;5037635;28;20516;-79
2023/04/21 06:30:17;;;;;;;8.07;4.53;;;10.10;1.00;;;;;;5053417;28;20051;-81
2023/04/21 06:32:44;;;;;;;6.82;4.43;;;10.10;99.90;;;;;;5054284;28;20045;-80
2023/04/21 06:35:10;;;;;;;8.25;4.50;;;10.30;99.90;;;;;;5053997;28;20041;-80
2023/04/21 06:37:36;;;;;;;11.18;4.65;;;10.40;99.90;;;;;;5054710;28;20072;-80
2023/04/21 06:40:02;;;;;;;9.05;4.30;;;10.50;99.90;;;;;;5054357;28;20037;-79
2023/04/21 06:42:28;;;;;;;9.18;3.88;;;10.60;99.90;;;;;;5054308;28;20412;-79
2023/04/21 06:44:55;;;;;;;6.03;3.67;;;10.70;99.90;;;;;;5037432;28;20037;-80
2023/04/21 06:47:21;;;;;;;7.85;4.72;;;10.80;99.90;;;;;;5054707;28;20048;-78
2023/04/21 06:49:46;;;;;;;7.15;4.15;;;11.90;94.80;;;;;;5053747;28;20508;-82
2023/04/21 06:52:12;;;;;;;12.20;4.18;;;11.00;99.90;;;;;;5037711;28;20467;-81
2023/04/21 06:54:38;;;;;;;8.73;3.97;;;11.10;34.70;;;;;;5037708;28;20052;-82
2023/04/21 06:57:03;;;;;;;7.90;3.75;;;11.30;21.90;;;;;;5054062;28;20040;-81
2023/04/21 06:59:29;;;;;;;5.90;3.35;;;12.80;91.70;;;;;;5054613;28;20050;-82
2023/04/21 07:01:54;;;;;;;8.50;4.30;;;13.20;1.00;;;;;;5054133;28;20128;-81
2023/04/21 07:04:20;;;;;;;8.10;4.10;;;11.50;1.00;;;;;;5053513;28;20049;-82
2023/04/21 07:06:47;;;;;;;6.45;4.03;;;11.60;99.90;;;;;;5054160;28;20040;-82
2023/04/21 07:09:13;;;;;;;8.13;3.95;;;11.70;1.00;;;;;;5054616;28;20080;-82
2023/04/21 07:11:38;;;;;;;12.32;4.35;;;11.80;37.70;;;;;;5053931;28;20083;-82
2023/04/21 07:14:05;;;;;;;11.93;4.22;;;11.90;5.00;;;;;;5054009;28;20408;-82
2023/04/21 07:16:31;;;;;;;9.20;4.30;;;11.90;99.90;;;;;;5053801;28;20037;-82
2023/04/21 07:18:57;;;;;;;6.57;3.90;;;12.00;1.00;;;;;;5053449;28;20044;-82
2023/04/21 07:21:23;;;;;;;7.03;3.28;;;12.10;99.90;;;;;;5053377;28;20041;-83
2023/04/21 07:23:49;;;;;;;7.32;5.00;;;12.10;42.60;;;;;;5037230;28;20404;-82
2023/04/21 07:26:14;;;;;;;5.93;3.95;;;12.80;99.90;;;;;;5053292;28;20060;-78
2023/04/21 07:28:40;;;;;;;4.68;3.60;;;12.30;99.90;;;;;;5052820;28;20079;-77
2023/04/21 07:31:06;;;;;;;9.20;4.30;;;12.40;99.90;;;;;;5052467;28;20404;-80
2023/04/21 07:33:32;;;;;;;7.07;4.05;;;12.50;99.90;;;;;;5053167;28;20037;-82
2023/04/21 07:35:57;;;;;;;8.73;3.85;;;12.60;1.00;;;;;;5052568;28;20044;-82
2023/04/21 07:38:25;;;;;;;7.43;4.00;;;12.80;99.90;;;;;;5053018;28;20037;-76
2023/04/21 07:40:50;;;;;;;9.68;4.00;;;12.80;99.90;;;;;;5052653;28;20041;-82
2023/04/21 07:43:18;;;;;;;5.25;4.00;;;13.80;99.90;;;;;;5052786;28;20043;-82
2023/04/21 07:45:44;;;;;;;8.55;3.65;;;13.10;99.90;;;;;;5052557;28;20037;-81
2023/04/21 07:48:10;;;;;;;5.90;3.83;;;13.20;99.90;;;;;;5036000;28;20037;-82
2023/04/21 07:50:35;;;;;;;5.13;3.53;;;13.40;99.90;;;;;;5052758;28;20044;-82
2023/04/21 07:53:01;;;;;;;6.03;4.20;;;13.50;99.90;;;;;;5052409;28;20037;-82
2023/04/21 07:55:28;;;;;;;9.40;3.95;;;13.50;1.00;;;;;;5052329;28;20455;-82
2023/04/21 07:57:54;;;;;;;9.55;3.63;;;13.50;1.00;;;;;;5052305;28;20041;-82
2023/04/21 08:00:19;;;;;;;8.15;4.80;;;13.60;1.00;;;;;;5052536;28;20500;-82
2023/04/21 08:02:45;;;;;;;8.85;4.30;;;13.60;1.00;;;;;;5035706;28;20047;-82
2023/04/21 08:05:11;;;;;;;7.25;3.33;;;13.60;1.00;;;;;;5052372;28;20059;-82
2023/04/21 08:07:36;;;;;;;7.47;3.92;;;13.80;1.00;;;;;;5052281;28;20088;-82
2023/04/21 08:10:02;;;;;;;5.90;4.18;;;13.80;1.00;;;;;;5052177;28;20048;-82
2023/04/21 08:12:28;;;;;;;10.23;4.10;;;13.90;1.00;;;;;;5052409;28;20032;-82
2023/04/21 08:14:54;;;;;;;6.72;3.92;;;13.90;1.00;;;;;;5051853;28;20404;-79
2023/04/21 08:17:19;;;;;;;5.88;3.67;;;13.80;99.90;;;;;;5035325;28;20041;-79
2023/04/21 08:19:45;;;;;;;5.57;3.78;;;;;;;;;;5035153;28;20079;-79
2023/04/21 08:22:11;;;;;;;7.97;4.18;;;;;;;;;;5035440;28;20044;-79
2023/04/21 08:24:37;;;;;;;5.38;3.60;;;14.40;99.90;;;;;;5051621;28;20048;-80
2023/04/21 08:27:03;;;;;;;7.53;3.80;;;14.40;99.90;;;;;;5051672;28;20037;-80
2023/04/21 08:29:28;;;;;;;6.22;3.63;;;14.30;99.90;;;;;;5035292;28;20052;-79
2023/04/21 08:31:54;;;;;;;8.23;3.58;;;14.20;99.90;;;;;;5051534;28;20052;-80
2023/04/21 08:34:19;;;;;;;5.97;3.85;;;14.90;99.90;;;;;;5051440;28;20044;-80
2023/04/21 08:36:46;;;;;;;6.70;3.92;;;14.30;99.90;;;;;;5051548;28;20059;-81
2023/04/21 08:39:13;;;;;;;13.15;4.47;;;14.90;99.90;;;;;;5035326;28;20090;-82
2023/04/21 08:41:41;;;;;;;6.22;3.58;;;14.80;99.90;;;;;;5051661;28;20044;-82
2023/04/21 08:44:10;;;;;;;5.25;3.38;;;14.80;99.90;;;;;;5035627;28;20175;-81
2023/04/21 08:46:36;;;;;;;9.10;4.00;;;16.50;99.90;;;;;;5051745;28;20536;-81
2023/04/21 08:49:02;;;;;;;7.22;4.22;;;15.10;99.90;;;;;;5051455;28;20156;-81
2023/04/21 08:51:29;;;;;;;12.82;4.00;;;15.80;99.90;;;;;;5051452;28;20077;-81
2023/04/21 08:53:55;;;;;;;6.13;4.05;;;16.10;99.90;;;;;;5051823;28;20493;-81
2023/04/21 08:56:21;;;;;;;8.93;4.00;;;15.30;99.90;;;;;;5051646;28;20033;-82
2023/04/21 08:58:46;;;;;;;7.55;4.03;;;15.30;99.90;;;;;;5051493;28;20037;-81
2023/04/21 09:01:12;;;;;;;9.10;3.38;;;15.30;99.90;;;;;;5051679;28;20405;-81
2023/04/21 09:03:37;;;;;;;5.82;3.97;;;15.30;99.90;;;;;;5035445;28;20133;-82
2023/04/21 09:06:05;;;;;;;5.45;3.55;;;15.20;99.90;;;;;;5034985;28;20048;-81
2023/04/21 09:08:31;;;;;;;7.13;3.75;;;15.30;99.90;;;;;;5018437;28;20037;-81
2023/04/21 09:11:00;;;;;;;9.73;4.10;;;15.30;99.90;;;;;;5018245;28;20049;-82
2023/04/21 09:13:34;;;;;;;5.90;3.58;;;15.60;99.90;;;;;;5034760;28;20056;-81
2023/04/21 09:16:01;;;;;;;7.25;3.65;;;16.00;99.90;;;;;;5035282;28;20041;-81
2023/04/21 09:18:34;;;;;;;7.45;4.15;;;15.60;99.90;;;;;;5034699;28;20037;-81
2023/04/21 09:21:19;;;;;;;4.55;3.45;;;15.80;99.90;;;;;;5035093;28;20055;-81
2023/04/21 09:23:46;;;;;;;5.55;3.33;;;16.00;99.90;;;;;;5018136;28;20041;-81
2023/04/21 09:26:12;;;;;;;9.85;3.58;;;16.00;99.90;;;;;;5034855;28;20560;-81
2023/04/21 09:28:45;;;;;;;7.95;3.80;;;16.20;99.90;;;;;;5034561;28;20049;-81
2023/04/21 09:31:16;;;;;;;7.05;4.20;;;16.10;99.90;;;;;;5035581;28;20056;-82
2023/04/21 09:33:50;;;;;;;7.70;4.53;;;16.10;99.90;;;;;;5034913;28;20052;-81
2023/04/21 09:36:24;;;;;;;7.88;3.58;;;16.00;99.90;;;;;;5018002;28;20067;-81
2023/04/21 09:38:53;;;;;;;7.28;4.43;;;16.00;99.90;;;;;;5034461;28;20041;-82
2023/04/21 09:41:20;;;;;;;5.70;4.13;;;16.00;99.90;;;;;;5034783;28;20044;-81
2023/04/21 09:43:46;;;;;;;5.72;3.85;;;16.70;99.90;;;;;;5034452;28;20045;-82
2023/04/21 09:46:15;;;;;;;7.38;4.43;;;17.10;99.90;;;;;;5034651;28;20381;-76
2023/04/21 09:48:43;;;;;;;7.38;3.97;;;16.10;99.90;;;;;;5034995;28;20037;-81
2023/04/21 09:51:11;;;;;;;18.25;4.55;;;16.30;99.90;;;;;;5034616;28;20055;-82
2023/04/21 09:53:40;;;;;;;5.85;3.72;;;16.30;99.90;;;;;;5034617;28;20041;-82
2023/04/21 09:56:10;;;;;;;9.40;4.05;;;16.30;99.90;;;;;;5034724;28;20480;-82
2023/04/21 09:58:39;;;;;;;;;;;16.30;99.90;;;;;;5018312;28;20041;-83
2023/04/21 10:01:05;;;;;;;9.65;3.58;;;16.60;99.90;;;;;;5017725;28;20015;-83
2023/04/21 10:03:31;;;;;;;6.75;4.50;;;16.90;99.90;;;;;;5019531;28;20124;-81
2023/04/21 10:05:56;;;;;;;6.82;3.28;;;16.60;99.90;;;;;;5037345;28;20556;-82
2023/04/21 10:08:22;;;;;;;7.43;3.88;;;18.20;99.90;;;;;;5037965;28;20033;-82
2023/04/21 10:10:48;;;;;;;9.27;4.53;;;18.00;99.90;;;;;;5054539;28;20033;-82
2023/04/21 10:13:16;;;;;;;5.07;3.65;;;16.90;99.90;;;;;;5038117;28;20070;-78
2023/04/21 10:15:41;;;;;;;10.02;3.88;;;17.20;99.90;;;;;;5054226;28;20187;-79
2023/04/21 10:18:22;;;;;;;6.60;4.35;;;18.30;99.90;;;;;;5053992;28;20560;-81
2023/04/21 10:21:01;;;;;;;7.78;3.55;;;17.30;99.90;;;;;;5054441;28;20555;-82
2023/04/21 10:23:29;;;;;;;7.78;3.70;;;17.20;99.90;;;;;;5037707;28;20044;-82
2023/04/21 10:26:10;;;;;;;7.95;4.32;;;17.20;99.90;;;;;;5054576;28;20515;-81
2023/04/21 10:28:46;;;;;;;;;;;17.10;99.90;;;;;;5054232;28;20119;-82
2023/04/21 10:31:22;;;;;;;6.38;4.07;;;17.40;99.90;;;;;;5054373;28;19972;-81
2023/04/21 10:34:15;;;;;;;10.80;4.15;;;17.60;99.90;;;;;;5055634;28;20084;-83
2023/04/21 10:37:01;;;;;;;6.97;4.18;;;17.70;99.90;;;;;;5054751;28;20063;-83
2023/04/21 10:39:35;;;;;;;8.15;4.10;;;17.50;99.90;;;;;;5032588;28;20045;-82
2023/04/21 10:42:17;;;;;;;9.38;3.80;;;19.40;99.90;;;;;;5055300;28;20044;-83
2023/04/21 10:44:43;;;;;;;4.78;4.05;;;;;;;;;;5054606;28;20060;-83
2023/04/21 10:47:09;;;;;;;7.53;4.38;;;18.10;99.90;;;;;;5054561;28;20549;-82
2023/04/21 10:49:38;;;;;;;5.20;3.65;;;;;;;;;;5053751;28;20132;-80
2023/04/21 10:52:06;;;;;;;7.43;3.75;;;18.50;99.90;;;;;;5037244;28;20058;-83
2023/04/21 10:54:44;;;;;;;7.13;3.65;;;19.10;99.90;;;;;;5054154;28;20489;-83
2023/04/21 10:57:19;;;;;;;4.85;2.95;;;18.80;99.90;;;;;;5037160;28;20044;-83
2023/04/21 10:59:46;;;;;;;7.65;3.72;;;19.90;99.90;;;;;;5037031;28;20076;-85
2023/04/21 11:02:14;;;;;;;7.22;3.30;;;18.80;99.90;;;;;;5037597;28;20037;-83
2023/04/21 11:04:46;;;;;;;5.20;3.42;;;20.40;99.90;;;;;;5053652;28;20064;-84
2023/04/21 11:07:13;;;;;;;5.20;3.10;;;19.30;99.90;;;;;;5053800;28;20102;-83
2023/04/21 11:09:40;;;;;;;6.15;3.55;;;19.30;99.90;;;;;;5053833;28;20037;-79
2023/04/21 11:12:14;;;;;;;7.18;3.47;;;19.10;99.90;;;;;;5053503;28;20059;-80
2023/04/21 11:14:42;;;;;;;5.68;3.45;;;19.00;99.90;;;;;;5052754;28;20045;-79
2023/04/21 11:17:12;;;;;;;6.80;3.22;;;18.80;99.90;;;;;;5053970;28;20052;-81
2023/04/21 11:19:38;;;;;;;6.03;2.92;;;18.80;99.90;;;;;;5053494;28;20097;-81
2023/04/21 11:22:04;;;;;;;11.52;3.22;;;18.60;99.90;;;;;;5053302;28;20033;-80
2023/04/21 11:24:33;;;;;;;5.10;2.70;;;20.50;99.90;;;;;;5052983;28;20064;-80
2023/04/21 11:27:00;;;;;;;3.65;2.35;;;19.30;99.90;;;;;;5053523;28;20149;-81
2023/04/21 11:29:28;;;;;;;6.85;3.28;;;19.30;99.90;;;;;;5053766;28;20408;-80
2023/04/21 11:31:54;;;;;;;6.22;3.03;;;20.30;99.90;;;;;;5037256;28;20158;-81
2023/04/21 11:34:20;;;;;;;8.73;2.65;;;19.20;99.90;;;;;;5053930;28;20123;-81
2023/04/21 11:36:47;;;;;;;4.72;2.40;;;19.30;99.90;;;;;;5053937;28;20043;-80
2023/04/21 11:39:16;;;;;;;5.65;2.45;;;19.20;99.40;;;;;;5053306;28;20461;-82
2023/04/21 11:41:43;;;;;;;6.90;2.20;;;19.60;99.90;;;;;;5036590;28;20043;-82
2023/04/21 11:44:10;;;;;;;6.22;2.35;;;19.10;98.90;;;;;;5052845;28;20041;-83
2023/04/21 11:46:36;;;;;;;2.78;2.30;;;19.30;99.40;;;;;;5036258;28;20127;-80
2023/04/21 11:49:05;;;;;;;2.95;1.90;;;20.50;99.90;;;;;;5052980;28;20076;-80
2023/04/21 11:51:36;;;;;;;3.65;2.33;;;19.30;98.10;;;;;;5052503;28;20447;-79
2023/04/21 11:54:04;;;;;;;7.05;2.22;;;19.30;97.50;;;;;;5052649;28;20045;-81
2023/04/21 11:56:37;;;;;;;5.18;2.17;;;19.60;96.80;;;;;;5052728;28;20041;-83
2023/04/21 11:59:11;;;;;;;3.28;2.22;;;19.40;97.20;;;;;;5052451;28;20412;-80
2023/04/21 12:01:43;;;;;;;5.50;2.58;;;19.90;98.40;;;;;;5035950;28;20484;-81
2023/04/21 12:04:14;;;;;;;2.97;2.15;;;19.80;98.40;;;;;;5035354;28;20139;-83
2023/04/21 12:06:40;;;;;;;4.50;2.22;;;19.70;96.80;;;;;;5052081;28;20033;-81
2023/04/21 12:09:06;;;;;;;5.78;2.42;;;20.90;98.50;;;;;;5052270;28;20043;-81
2023/04/21 12:11:35;;;;;;;4.90;2.42;;;19.50;96.50;;;;;;5036851;28;20051;-82
2023/04/21 12:14:00;;;;;;;3.30;2.17;;;19.60;97.30;;;;;;5035860;28;20037;-78
2023/04/21 12:16:28;;;;;;;2.92;2.00;;;19.90;98.60;;;;;;5052065;28;20132;-77
2023/04/21 12:18:57;;;;;;;4.05;2.60;;;20.00;99.90;;;;;;5052023;28;20102;-79
2023/04/21 12:21:29;;;;;;;7.65;2.67;;;20.00;97.80;;;;;;5051691;28;20120;-78
2023/04/21 12:23:54;;;;;;;5.53;2.55;;;20.20;99.40;;;;;;5035192;28;20094;-77
2023/04/21 12:26:21;;;;;;;4.97;2.50;;;20.50;99.90;;;;;;5051154;28;20128;-80
2023/04/21 12:28:47;;;;;;;4.53;2.40;;;20.40;99.90;;;;;;5034917;28;20041;-80
2023/04/21 12:31:12;;;;;;;3.70;2.20;;;20.90;98.80;;;;;;5051887;28;20101;-79
2023/04/21 12:33:38;;;;;;;4.47;2.40;;;20.10;98.70;;;;;;5051949;28;20045;-80
2023/04/21 12:36:04;;;;;;;4.30;1.58;;;20.10;98.70;;;;;;5035390;28;20040;-82
2023/04/21 12:38:30;;;;;;;5.72;2.15;;;20.10;97.50;;;;;;5052708;28;20124;-79
2023/04/21 12:40:56;;;;;;;3.25;1.83;;;20.30;97.60;;;;;;5035003;28;20037;-81
2023/04/21 12:43:21;;;;;;;3.05;1.90;;;20.20;96.50;;;;;;5051877;28;20037;-85
2023/04/21 12:45:49;;;;;;;5.80;1.77;;;20.00;95.00;;;;;;5052088;28;20132;-84
2023/04/21 12:48:14;;;;;;;6.32;2.00;;;20.00;93.20;;;;;;5052312;28;20082;-86
2023/04/21 12:50:40;;;;;;;5.03;2.00;;;19.80;91.90;;;;;;5035492;28;20500;-85